createdAt,value
2017-10-27T00:01:32.088Z,80.27
2017-10-27T00:03:59.576Z,80.73
2017-10-27T00:06:27.165Z,80.96
2017-10-27T00:08:54.643Z,81.00
2017-10-27T00:11:22.097Z,80.90
2017-10-27T00:13:49.652Z,81.01
2017-10-27T00:16:17.136Z,81.18
2017-10-27T00:18:44.822Z,81.31
2017-10-27T00:21:12.482Z,81.25
2017-10-27T00:23:39.954Z,81.42
2017-10-27T00:26:07.426Z,80.94
2017-10-27T00:28:34.953Z,81.21
2017-10-27T00:31:02.433Z,81.23
2017-10-27T00:33:29.889Z,80.86
2017-10-27T00:35:57.448Z,81.32
2017-10-27T00:38:24.906Z,81.35
2017-10-27T00:40:52.373Z,81.67
2017-10-27T00:43:19.918Z,81.89
2017-10-27T00:45:47.398Z,81.66
2017-10-27T00:48:14.940Z,81.37
2017-10-27T00:50:42.447Z,80.81
2017-10-27T00:53:09.921Z,81.14
2017-10-27T00:55:37.394Z,81.44
2017-10-27T00:58:04.927Z,81.97
2017-10-27T01:00:32.406Z,81.70
2017-10-27T01:02:59.873Z,81.62
2017-10-27T01:05:27.358Z,82.05
2017-10-27T01:07:54.858Z,82.32
2017-10-27T01:10:22.315Z,82.05
2017-10-27T01:12:49.833Z,81.99
2017-10-27T01:15:17.448Z,81.37
2017-10-27T01:17:44.915Z,81.42
2017-10-27T01:20:12.435Z,81.46
2017-10-27T01:22:39.928Z,82.16
2017-10-27T01:25:07.397Z,82.00
2017-10-27T01:27:34.920Z,82.00
2017-10-27T01:30:02.400Z,82.34
2017-10-27T01:32:29.889Z,81.92
2017-10-27T01:34:57.410Z,81.79
2017-10-27T01:37:24.893Z,82.20
2017-10-27T01:39:52.379Z,82.03
2017-10-27T01:42:19.883Z,81.56
2017-10-27T01:44:47.349Z,81.18
2017-10-27T01:47:14.831Z,81.88
2017-10-27T01:49:42.344Z,82.09
2017-10-27T01:52:09.881Z,81.07
2017-10-27T01:54:37.598Z,81.16
2017-10-27T01:57:05.105Z,80.33
2017-10-27T01:59:32.556Z,80.01
2017-10-27T02:02:00.029Z,79.77
2017-10-27T02:04:27.631Z,80.12
2017-10-27T02:06:55.092Z,79.65
2017-10-27T02:09:22.601Z,79.20
2017-10-27T02:11:50.604Z,79.22
2017-10-27T02:14:18.100Z,79.24
2017-10-27T02:16:45.576Z,78.99
2017-10-27T02:19:13.090Z,79.18
2017-10-27T02:21:40.576Z,78.94
2017-10-27T02:24:08.036Z,79.40
2017-10-27T02:26:35.547Z,78.70
2017-10-27T02:29:02.996Z,78.18
2017-10-27T02:31:30.473Z,78.15
2017-10-27T02:33:57.985Z,78.00
2017-10-27T02:36:25.442Z,77.84
2017-10-27T02:38:52.941Z,78.22
2017-10-27T02:41:20.460Z,77.88
2017-10-27T02:43:47.932Z,77.91
2017-10-27T02:46:15.515Z,77.92
2017-10-27T02:48:43.007Z,78.06
2017-10-27T02:51:10.487Z,77.86
2017-10-27T02:53:37.948Z,77.34
2017-10-27T02:56:05.440Z,77.20
2017-10-27T02:58:33.018Z,76.81
2017-10-27T03:01:00.495Z,77.29
2017-10-27T03:03:27.994Z,77.36
2017-10-27T03:05:55.468Z,77.68
2017-10-27T03:08:22.993Z,77.78
2017-10-27T03:10:50.494Z,76.78
2017-10-27T03:13:17.955Z,76.84
2017-10-27T03:15:45.417Z,77.00
2017-10-27T03:18:12.935Z,76.69
2017-10-27T03:20:40.411Z,76.85
2017-10-27T03:23:07.883Z,76.32
2017-10-27T03:25:35.433Z,76.48
2017-10-27T03:28:02.909Z,75.86
2017-10-27T03:30:30.402Z,75.99
2017-10-27T03:32:57.932Z,76.43
2017-10-27T03:35:25.399Z,76.59
2017-10-27T03:37:52.858Z,76.33
2017-10-27T03:40:20.375Z,76.82
2017-10-27T03:42:47.863Z,76.88
2017-10-27T03:45:15.427Z,77.22
2017-10-27T03:47:42.910Z,77.20
2017-10-27T03:50:11.201Z,77.00
2017-10-27T03:52:38.685Z,77.50
2017-10-27T03:55:06.165Z,77.95
2017-10-27T03:57:33.628Z,77.32
2017-10-27T04:00:01.095Z,78.03
2017-10-27T04:02:28.614Z,78.34
2017-10-27T04:04:56.141Z,78.27
2017-10-27T04:07:23.610Z,78.51
2017-10-27T04:09:51.120Z,78.50
2017-10-27T04:12:18.586Z,78.89
2017-10-27T04:14:46.068Z,78.94
2017-10-27T04:17:13.608Z,79.11
2017-10-27T04:19:41.074Z,79.03
2017-10-27T04:22:08.536Z,78.62
2017-10-27T04:24:36.037Z,78.63
2017-10-27T04:27:03.516Z,79.08
2017-10-27T04:29:31.014Z,79.62
2017-10-27T04:31:58.503Z,79.95
2017-10-27T04:34:25.959Z,80.17
2017-10-27T04:36:53.428Z,80.33
2017-10-27T04:39:20.932Z,80.30
2017-10-27T04:41:48.395Z,79.83
2017-10-27T04:44:15.918Z,80.02
2017-10-27T04:46:43.412Z,79.94
2017-10-27T04:49:10.892Z,79.94
2017-10-27T04:51:38.368Z,80.13
2017-10-27T04:54:05.878Z,79.56
2017-10-27T04:56:33.575Z,79.41
2017-10-27T04:59:01.053Z,79.87
2017-10-27T05:01:28.537Z,79.81
2017-10-27T05:03:55.998Z,80.46
2017-10-27T05:06:23.502Z,80.49
2017-10-27T05:08:51.096Z,80.61
2017-10-27T05:11:18.562Z,80.64
2017-10-27T05:13:46.043Z,80.34
2017-10-27T05:16:13.546Z,80.55
2017-10-27T05:18:46.577Z,80.13
2017-10-27T05:21:19.630Z,80.51
2017-10-27T05:23:52.573Z,80.39
2017-10-27T05:26:20.073Z,80.46
2017-10-27T05:28:47.535Z,80.45
2017-10-27T05:31:15.008Z,80.53
2017-10-27T05:33:42.571Z,80.58
2017-10-27T05:36:10.065Z,81.13
2017-10-27T05:38:37.559Z,81.02
2017-10-27T05:41:05.065Z,81.41
2017-10-27T05:43:32.527Z,81.66
2017-10-27T05:46:00.040Z,81.36
2017-10-27T05:48:27.580Z,82.08
2017-10-27T05:50:55.050Z,82.05
2017-10-27T05:53:22.521Z,82.59
2017-10-27T05:55:50.033Z,83.58
2017-10-27T05:58:18.006Z,83.54
2017-10-27T06:00:45.798Z,84.14
2017-10-27T06:03:13.305Z,84.67
2017-10-27T06:05:40.780Z,85.01
2017-10-27T06:08:08.252Z,85.33
2017-10-27T06:10:35.774Z,84.99
2017-10-27T06:13:03.238Z,84.98
2017-10-27T06:15:30.723Z,84.96
2017-10-27T06:17:58.254Z,85.56
2017-10-27T06:20:25.742Z,85.22
2017-10-27T06:22:53.224Z,85.78
2017-10-27T06:25:20.718Z,86.23
2017-10-27T06:27:48.185Z,86.50
2017-10-27T06:30:15.660Z,86.62
2017-10-27T06:32:43.163Z,86.80
2017-10-27T06:35:10.635Z,86.86
2017-10-27T06:37:38.110Z,86.26
2017-10-27T06:40:05.675Z,86.36
2017-10-27T06:42:33.139Z,86.75
2017-10-27T06:45:00.608Z,86.66
2017-10-27T06:47:28.109Z,86.51
2017-10-27T06:49:55.596Z,86.38
2017-10-27T06:52:23.069Z,86.21
2017-10-27T06:54:50.592Z,85.94
2017-10-27T06:57:18.051Z,85.76
2017-10-27T06:59:45.521Z,85.92
2017-10-27T07:02:13.121Z,85.61
2017-10-27T07:04:40.605Z,85.67
2017-10-27T07:07:08.118Z,85.47
2017-10-27T07:09:35.674Z,85.90
2017-10-27T07:12:03.208Z,85.37
2017-10-27T07:14:30.923Z,85.38
2017-10-27T07:16:58.443Z,85.35
2017-10-27T07:19:25.976Z,84.48
2017-10-27T07:21:53.488Z,83.89
2017-10-27T07:24:21.023Z,84.24
2017-10-27T07:26:48.535Z,84.25
2017-10-27T07:29:16.027Z,83.93
2017-10-27T07:31:43.661Z,83.55
2017-10-27T07:34:11.181Z,83.52
2017-10-27T07:36:38.678Z,83.74
2017-10-27T07:39:06.198Z,83.78
2017-10-27T07:41:33.720Z,84.04
2017-10-27T07:44:01.208Z,84.22
2017-10-27T07:46:28.759Z,83.79
2017-10-27T07:48:56.447Z,83.33
2017-10-27T07:51:23.957Z,82.74
2017-10-27T07:53:51.502Z,81.91
2017-10-27T07:56:19.011Z,80.82
2017-10-27T07:58:46.488Z,80.15
2017-10-27T08:01:14.050Z,79.84
2017-10-27T08:03:41.535Z,79.30
2017-10-27T08:06:09.042Z,78.98
2017-10-27T08:08:36.611Z,78.82
2017-10-27T08:11:04.127Z,78.77
2017-10-27T08:13:31.641Z,78.85
2017-10-27T08:15:59.203Z,78.58
2017-10-27T08:18:27.039Z,78.92
2017-10-27T08:20:54.539Z,78.57
2017-10-27T08:23:22.094Z,79.92
2017-10-27T08:25:49.711Z,81.01
2017-10-27T08:28:17.463Z,80.84
2017-10-27T08:30:45.290Z,78.09
2017-10-27T08:33:12.826Z,77.61
2017-10-27T08:35:40.426Z,76.73
2017-10-27T08:38:07.999Z,75.16
2017-10-27T08:40:35.515Z,75.23
2017-10-27T08:43:09.747Z,75.13
2017-10-27T08:45:37.259Z,74.77
2017-10-27T08:48:04.752Z,74.64
2017-10-27T08:50:32.568Z,74.71
2017-10-27T08:53:00.230Z,74.56
2017-10-27T08:55:27.721Z,74.71
2017-10-27T08:57:55.258Z,75.00
2017-10-27T09:00:22.796Z,74.39
2017-10-27T09:02:50.303Z,75.00
2017-10-27T09:05:17.859Z,75.10
2017-10-27T09:07:45.361Z,75.33
2017-10-27T09:10:12.847Z,75.51
2017-10-27T09:12:40.377Z,75.03
2017-10-27T09:15:07.876Z,75.30
2017-10-27T09:17:35.369Z,75.25
2017-10-27T09:20:02.918Z,75.32
2017-10-27T09:22:30.630Z,74.97
2017-10-27T09:24:58.140Z,75.31
2017-10-27T09:27:25.677Z,74.75
2017-10-27T09:29:53.180Z,76.30
2017-10-27T09:32:20.683Z,76.53
2017-10-27T09:34:48.228Z,77.31
2017-10-27T09:37:15.707Z,78.11
2017-10-27T09:39:43.180Z,79.99
2017-10-27T09:42:10.736Z,82.38
2017-10-27T09:44:38.260Z,84.19
2017-10-27T09:47:05.917Z,86.94
2017-10-27T09:49:33.421Z,89.46
2017-10-27T09:52:00.894Z,90.64
2017-10-27T09:54:28.713Z,90.05
2017-10-27T09:56:56.261Z,91.22
2017-10-27T09:59:23.773Z,89.96
2017-10-27T10:01:51.281Z,91.03
2017-10-27T10:04:18.817Z,88.97
2017-10-27T10:06:46.991Z,87.85
2017-10-27T10:09:14.499Z,88.02
2017-10-27T10:11:42.046Z,86.14
2017-10-27T10:14:09.570Z,85.52
2017-10-27T10:16:37.075Z,87.73
2017-10-27T10:19:04.603Z,87.25
2017-10-27T10:21:32.100Z,89.90
2017-10-27T10:23:59.687Z,89.24
2017-10-27T10:26:27.330Z,88.81
2017-10-27T10:28:54.833Z,88.57
2017-10-27T10:31:22.318Z,88.61
2017-10-27T10:33:49.841Z,88.71
2017-10-27T10:36:17.381Z,89.36
2017-10-27T10:38:44.913Z,88.80
2017-10-27T10:41:12.433Z,88.41
2017-10-27T10:43:39.941Z,89.05
2017-10-27T10:46:07.597Z,89.63
2017-10-27T10:48:35.125Z,89.14
2017-10-27T10:51:02.671Z,88.17
2017-10-27T10:53:30.374Z,88.85
2017-10-27T10:55:57.922Z,88.59
2017-10-27T10:58:25.414Z,86.32
2017-10-27T11:00:53.248Z,86.99
2017-10-27T11:03:20.826Z,87.24
2017-10-27T11:05:48.305Z,86.68
2017-10-27T11:08:16.129Z,85.32
2017-10-27T11:10:43.757Z,86.84
2017-10-27T11:13:11.372Z,85.53
2017-10-27T11:15:38.938Z,85.31
2017-10-27T11:18:06.490Z,84.06
2017-10-27T11:20:34.481Z,84.64
2017-10-27T11:23:02.076Z,82.85
2017-10-27T11:25:29.670Z,82.79
2017-10-27T11:27:57.268Z,82.48
2017-10-27T11:30:25.454Z,83.70
2017-10-27T11:32:53.024Z,83.76
2017-10-27T11:35:20.549Z,84.18
2017-10-27T11:37:48.115Z,84.65
2017-10-27T11:40:15.772Z,84.81
2017-10-27T11:42:43.895Z,84.75
2017-10-27T11:45:11.472Z,84.25
2017-10-27T11:47:39.075Z,84.42
2017-10-27T11:50:06.664Z,85.37
2017-10-27T11:52:34.832Z,85.93
2017-10-27T11:55:02.468Z,87.21
2017-10-27T11:57:30.045Z,86.89
2017-10-27T11:59:57.569Z,88.41
2017-10-27T12:02:25.180Z,88.40
2017-10-27T12:04:52.689Z,87.99
2017-10-27T12:07:20.175Z,86.62
2017-10-27T12:09:47.742Z,86.93
2017-10-27T12:12:15.248Z,85.42
2017-10-27T12:14:42.722Z,85.19
2017-10-27T12:17:10.229Z,85.65
2017-10-27T12:19:37.738Z,85.55
2017-10-27T12:22:05.322Z,85.27
2017-10-27T12:24:32.833Z,83.68
2017-10-27T12:27:00.314Z,83.06
2017-10-27T12:29:27.790Z,82.50
2017-10-27T12:31:55.334Z,81.69
2017-10-27T12:34:22.831Z,80.53
2017-10-27T12:36:50.480Z,80.03
2017-10-27T12:39:18.038Z,79.17
2017-10-27T12:41:45.514Z,77.83
2017-10-27T12:44:13.049Z,76.96
2017-10-27T12:46:40.567Z,76.75
2017-10-27T12:49:08.057Z,75.52
2017-10-27T12:51:35.537Z,75.11
2017-10-27T12:54:03.082Z,76.10
2017-10-27T12:56:30.746Z,74.63
2017-10-27T12:58:58.242Z,73.65
2017-10-27T13:01:25.770Z,72.34
2017-10-27T13:03:53.382Z,73.48
2017-10-27T13:06:20.875Z,72.63
2017-10-27T13:08:48.388Z,72.35
2017-10-27T13:11:15.911Z,74.05
2017-10-27T13:13:43.418Z,73.34
2017-10-27T13:16:10.930Z,72.82
2017-10-27T13:18:38.447Z,73.28
2017-10-27T13:21:06.864Z,74.44
2017-10-27T13:23:34.425Z,75.03
2017-10-27T13:26:01.913Z,74.88
2017-10-27T13:28:29.387Z,75.55
2017-10-27T13:30:56.868Z,74.34
2017-10-27T13:33:24.342Z,74.11
2017-10-27T13:35:51.865Z,73.97
2017-10-27T13:38:19.391Z,73.71
2017-10-27T13:40:46.896Z,72.95
2017-10-27T13:43:14.356Z,73.46
2017-10-27T13:45:41.878Z,72.44
2017-10-27T13:48:09.396Z,72.25
2017-10-27T13:50:36.993Z,71.69
2017-10-27T13:53:04.515Z,71.12
2017-10-27T13:55:31.994Z,69.82
2017-10-27T13:57:59.481Z,67.06
2017-10-27T14:00:27.696Z,67.31
2017-10-27T14:02:55.162Z,67.53
2017-10-27T14:05:22.659Z,65.20
2017-10-27T14:07:50.180Z,64.74
2017-10-27T14:10:17.689Z,67.12
2017-10-27T14:12:45.350Z,70.30
2017-10-27T14:15:12.867Z,72.78
2017-10-27T14:17:40.364Z,73.18
2017-10-27T14:20:07.883Z,74.06
2017-10-27T14:22:35.425Z,74.42
2017-10-27T14:25:02.904Z,75.03
2017-10-27T14:27:30.382Z,75.69
2017-10-27T14:29:57.892Z,75.44
2017-10-27T14:32:25.438Z,75.25
2017-10-27T14:34:52.898Z,75.51
2017-10-27T14:37:20.412Z,75.66
2017-10-27T14:39:47.918Z,75.42
2017-10-27T14:42:15.470Z,75.64
2017-10-27T14:44:42.968Z,76.13
2017-10-27T14:47:10.474Z,76.74
2017-10-27T14:49:37.962Z,77.06
2017-10-27T14:52:05.539Z,77.20
2017-10-27T14:54:33.066Z,77.75
2017-10-27T14:57:00.550Z,78.10
2017-10-27T14:59:28.046Z,79.27
2017-10-27T15:01:55.602Z,78.64
2017-10-27T15:04:23.080Z,79.62
2017-10-27T15:06:50.613Z,79.70
2017-10-27T15:09:18.148Z,79.66
2017-10-27T15:11:45.621Z,79.28
2017-10-27T15:14:13.134Z,79.53
2017-10-27T15:16:40.601Z,79.47
2017-10-27T15:19:08.126Z,79.80
2017-10-27T15:21:35.629Z,79.75
2017-10-27T15:24:03.096Z,79.76
2017-10-27T15:26:31.862Z,79.37
2017-10-27T15:28:59.378Z,79.46
2017-10-27T15:31:26.858Z,79.06
2017-10-27T15:33:54.358Z,79.05
2017-10-27T15:36:21.906Z,79.66
2017-10-27T15:38:49.378Z,78.71
2017-10-27T15:41:16.840Z,78.77
2017-10-27T15:43:44.368Z,78.79
2017-10-27T15:46:11.844Z,78.56
2017-10-27T15:48:39.318Z,78.00
2017-10-27T15:51:06.844Z,77.52
2017-10-27T15:53:34.320Z,77.62
2017-10-27T15:56:01.807Z,77.30
2017-10-27T15:58:29.354Z,77.22
2017-10-27T16:00:56.814Z,76.63
2017-10-27T16:03:24.291Z,76.17
2017-10-27T16:05:51.788Z,76.32
2017-10-27T16:08:19.271Z,76.06
2017-10-27T16:10:46.764Z,76.22
2017-10-27T16:13:14.261Z,76.45
2017-10-27T16:15:41.730Z,75.58
2017-10-27T16:18:09.260Z,75.04
2017-10-27T16:20:36.797Z,75.68
2017-10-27T16:23:04.344Z,75.41
2017-10-27T16:25:31.827Z,75.31
2017-10-27T16:27:59.346Z,74.56
2017-10-27T16:30:26.865Z,74.60
2017-10-27T16:32:54.355Z,74.65
2017-10-27T16:35:21.865Z,73.79
2017-10-27T16:37:49.338Z,73.77
2017-10-27T16:40:16.842Z,73.70
2017-10-27T16:42:44.375Z,73.43
2017-10-27T16:45:11.874Z,73.61
2017-10-27T16:47:39.365Z,73.69
2017-10-27T16:50:06.873Z,73.33
2017-10-27T16:52:34.393Z,73.85
2017-10-27T16:55:01.880Z,73.96
2017-10-27T16:57:29.373Z,74.14
2017-10-27T16:59:56.867Z,74.29
2017-10-27T17:02:24.330Z,73.99
2017-10-27T17:04:51.839Z,73.74
2017-10-27T17:07:19.319Z,73.68
2017-10-27T17:09:46.806Z,73.48
2017-10-27T17:12:14.305Z,73.45
2017-10-27T17:14:41.797Z,73.66
2017-10-27T17:17:09.265Z,73.82
2017-10-27T17:19:36.770Z,73.49
2017-10-27T17:22:04.273Z,73.98
2017-10-27T17:24:31.812Z,74.06
2017-10-27T17:26:59.383Z,73.88
2017-10-27T17:29:26.868Z,74.06
2017-10-27T17:31:54.349Z,74.29
2017-10-27T17:34:21.824Z,74.03
2017-10-27T17:36:49.321Z,74.49
2017-10-27T17:39:17.309Z,74.50
2017-10-27T17:41:44.822Z,74.54
2017-10-27T17:44:12.319Z,74.22
2017-10-27T17:46:39.870Z,74.27
2017-10-27T17:49:07.390Z,74.21
2017-10-27T17:51:34.908Z,74.58
2017-10-27T17:54:02.405Z,74.15
2017-10-27T17:56:30.033Z,73.77
2017-10-27T17:58:57.560Z,74.08
2017-10-27T18:01:25.099Z,73.19
2017-10-27T18:03:52.661Z,73.61
2017-10-27T18:06:20.392Z,73.36
2017-10-27T18:08:47.900Z,74.04
2017-10-27T18:11:15.434Z,73.87
2017-10-27T18:13:42.933Z,73.73
2017-10-27T18:16:10.393Z,73.68
2017-10-27T18:18:37.903Z,73.33
2017-10-27T18:21:05.410Z,73.37
2017-10-27T18:23:32.864Z,73.75
2017-10-27T18:26:00.444Z,73.83
2017-10-27T18:28:27.954Z,74.00
2017-10-27T18:30:55.438Z,73.83
2017-10-27T18:33:22.946Z,73.77
2017-10-27T18:35:50.432Z,73.22
2017-10-27T18:38:18.092Z,73.50
2017-10-27T18:40:45.696Z,72.74
2017-10-27T18:43:13.192Z,72.53
2017-10-27T18:45:40.679Z,72.32
2017-10-27T18:48:08.173Z,72.33
2017-10-27T18:50:35.654Z,72.47
2017-10-27T18:53:03.155Z,72.36
2017-10-27T18:58:03.486Z,71.69
2017-10-27T19:00:31.263Z,71.68
2017-10-27T19:02:58.811Z,71.50
2017-10-27T19:05:26.307Z,71.30
2017-10-27T19:07:53.858Z,70.55
2017-10-27T19:10:21.325Z,70.72
2017-10-27T19:12:48.854Z,70.42
2017-10-27T19:15:16.450Z,70.84
2017-10-27T19:17:43.964Z,70.89
2017-10-27T19:20:11.451Z,70.40
2017-10-27T19:22:38.937Z,70.40
2017-10-27T19:25:06.395Z,70.50
2017-10-27T19:27:33.876Z,70.83
2017-10-27T19:30:01.398Z,70.83
2017-10-27T19:32:28.921Z,70.58
2017-10-27T19:34:56.404Z,70.90
2017-10-27T19:37:23.924Z,70.94
2017-10-27T19:39:51.388Z,71.01
2017-10-27T19:42:18.846Z,70.71
2017-10-27T19:44:46.363Z,70.94
2017-10-27T19:47:13.873Z,70.85
2017-10-27T19:49:41.341Z,70.99
2017-10-27T19:52:08.837Z,70.86
2017-10-27T19:54:36.316Z,71.00
2017-10-27T19:57:03.816Z,70.28
2017-10-27T19:59:31.309Z,70.41
2017-10-27T20:01:58.760Z,70.82
2017-10-27T20:04:26.224Z,70.89
2017-10-27T20:06:53.716Z,70.48
2017-10-27T20:09:21.254Z,70.29
2017-10-27T20:11:48.722Z,70.45
2017-10-27T20:14:16.281Z,70.49
2017-10-27T20:16:43.763Z,70.50
2017-10-27T20:19:11.231Z,70.92
2017-10-27T20:21:38.734Z,70.97
2017-10-27T20:24:06.195Z,70.88
2017-10-27T20:26:33.658Z,71.20
2017-10-27T20:29:01.168Z,70.90
2017-10-27T20:31:28.711Z,70.83
2017-10-27T20:33:56.178Z,70.79
2017-10-27T20:36:23.677Z,70.28
2017-10-27T20:38:51.163Z,70.25
2017-10-27T20:41:18.851Z,69.81
2017-10-27T20:43:46.346Z,69.58
2017-10-27T20:46:13.832Z,69.12
2017-10-27T20:48:41.401Z,69.16
2017-10-27T20:51:08.938Z,68.97
2017-10-27T20:53:36.396Z,68.92
2017-10-27T20:56:03.873Z,68.30
2017-10-27T20:58:31.757Z,68.15
2017-10-27T21:00:59.227Z,68.37
2017-10-27T21:03:26.706Z,67.88
2017-10-27T21:05:54.202Z,68.15
2017-10-27T21:08:21.678Z,68.43
2017-10-27T21:10:49.185Z,68.13
2017-10-27T21:13:16.693Z,68.04
2017-10-27T21:15:44.147Z,68.20
2017-10-27T21:18:11.635Z,68.62
2017-10-27T21:20:39.146Z,68.72
2017-10-27T21:23:06.610Z,68.85
2017-10-27T21:25:34.076Z,68.79
2017-10-27T21:28:01.586Z,68.64
2017-10-27T21:30:29.133Z,68.55
2017-10-27T21:32:56.675Z,68.98
2017-10-27T21:35:24.164Z,70.63
2017-10-27T21:37:51.689Z,70.46
2017-10-27T21:40:19.161Z,70.43
2017-10-27T21:42:46.654Z,70.16
2017-10-27T21:45:14.101Z,71.09
2017-10-27T21:47:41.561Z,69.78
2017-10-27T21:50:09.083Z,69.38
2017-10-27T21:52:36.541Z,69.83
2017-10-27T21:55:04.024Z,69.44
2017-10-27T21:57:31.588Z,69.32
2017-10-27T21:59:59.036Z,69.08
2017-10-27T22:02:26.521Z,69.84
2017-10-27T22:04:54.024Z,69.44
2017-10-27T22:07:21.544Z,69.07
2017-10-27T22:09:49.024Z,69.21
2017-10-27T22:12:16.506Z,68.91
2017-10-27T22:14:43.985Z,69.00
2017-10-27T22:17:11.433Z,68.87
2017-10-27T22:19:38.941Z,68.55
2017-10-27T22:22:06.428Z,68.37
2017-10-27T22:24:33.924Z,68.60
2017-10-27T22:27:01.441Z,68.72
2017-10-27T22:29:28.900Z,68.30
2017-10-27T22:31:56.369Z,68.53
2017-10-27T22:34:23.930Z,68.33
2017-10-27T22:36:51.402Z,68.39
2017-10-27T22:39:18.882Z,68.51
2017-10-27T22:41:46.384Z,68.49
2017-10-27T22:44:13.880Z,68.85
2017-10-27T22:46:41.368Z,69.34
2017-10-27T22:49:08.911Z,68.92
2017-10-27T22:51:36.392Z,69.10
2017-10-27T22:54:03.858Z,69.34
2017-10-27T22:56:32.373Z,69.92
2017-10-27T22:58:59.830Z,70.19
2017-10-27T23:01:27.296Z,70.69
2017-10-27T23:03:54.809Z,71.10
2017-10-27T23:06:22.269Z,71.02
2017-10-27T23:08:49.738Z,71.00
2017-10-27T23:11:17.254Z,71.26
2017-10-27T23:13:44.709Z,71.40
2017-10-27T23:16:12.197Z,71.46
2017-10-27T23:18:39.966Z,71.33
2017-10-27T23:21:07.436Z,71.31
2017-10-27T23:23:34.891Z,70.72
2017-10-27T23:26:02.389Z,70.55
2017-10-27T23:28:29.953Z,71.32
2017-10-27T23:30:57.450Z,71.23
2017-10-27T23:33:24.957Z,71.76
2017-10-27T23:35:52.448Z,72.43
2017-10-27T23:38:19.909Z,72.08
2017-10-27T23:40:47.444Z,73.47
2017-10-27T23:43:14.914Z,74.45
2017-10-27T23:45:42.386Z,75.56
2017-10-27T23:48:09.890Z,76.64
2017-10-27T23:50:37.344Z,79.36
2017-10-27T23:53:04.807Z,81.52
2017-10-27T23:55:32.286Z,81.73
2017-10-27T23:57:59.756Z,81.29
